sensor_id;sensor_type;location;lat;lon;timestamp;P1;P2;P0
69224;PMS1003;56333;51.306;17.056;2023-04-27T00:00:16;12.10;6.50;
69224;PMS1003;56333;51.306;17.056;2023-04-27T00:01:54;10.60;6.50;
69224;PMS1003;56333;51.306;17.056;2023-04-27T00:03:23;11.90;6.90;
69224;PMS1003;56333;51.306;17.056;2023-04-27T00:04:52;10.10;6.30;
69224;PMS1003;56333;51.306;17.056;2023-04-27T00:06:22;11.70;6.30;
69224;PMS1003;56333;51.306;17.056;2023-04-27T00:07:51;12.50;6.60;
69224;PMS1003;56333;51.306;17.056;2023-04-27T00:09:21;9.80;6.20;
69224;PMS1003;56333;51.306;17.056;2023-04-27T00:10:50;12.90;6.50;
69224;PMS1003;56333;51.306;17.056;2023-04-27T00:12:19;12.60;6.60;
69224;PMS1003;56333;51.306;17.056;2023-04-27T00:13:48;11.00;6.50;
69224;PMS1003;56333;51.306;17.056;2023-04-27T00:15:16;13.10;6.50;
69224;PMS1003;56333;51.306;17.056;2023-04-27T00:16:45;10.40;6.20;
69224;PMS1003;56333;51.306;17.056;2023-04-27T00:18:14;10.30;6.40;
69224;PMS1003;56333;51.306;17.056;2023-04-27T00:19:42;14.20;6.10;
69224;PMS1003;56333;51.306;17.056;2023-04-27T00:21:11;10.90;6.30;
69224;PMS1003;56333;51.306;17.056;2023-04-27T00:22:40;12.00;6.20;
69224;PMS1003;56333;51.306;17.056;2023-04-27T00:24:09;10.50;5.80;
69224;PMS1003;56333;51.306;17.056;2023-04-27T00:25:38;9.80;5.60;
69224;PMS1003;56333;51.306;17.056;2023-04-27T00:27:07;7.00;5.10;
69224;PMS1003;56333;51.306;17.056;2023-04-27T00:28:38;12.30;5.70;
69224;PMS1003;56333;51.306;17.056;2023-04-27T00:30:10;13.60;6.10;
69224;PMS1003;56333;51.306;17.056;2023-04-27T00:31:38;11.00;5.60;
69224;PMS1003;56333;51.306;17.056;2023-04-27T00:33:07;9.90;5.30;
69224;PMS1003;56333;51.306;17.056;2023-04-27T00:34:37;11.70;5.70;
69224;PMS1003;56333;51.306;17.056;2023-04-27T00:36:07;10.20;5.50;
69224;PMS1003;56333;51.306;17.056;2023-04-27T00:37:36;9.90;5.50;
69224;PMS1003;56333;51.306;17.056;2023-04-27T00:39:06;8.40;5.40;
69224;PMS1003;56333;51.306;17.056;2023-04-27T00:40:35;11.60;5.30;
69224;PMS1003;56333;51.306;17.056;2023-04-27T00:42:04;9.00;5.40;
69224;PMS1003;56333;51.306;17.056;2023-04-27T00:43:42;11.20;5.50;
69224;PMS1003;56333;51.306;17.056;2023-04-27T00:45:13;9.30;5.60;
69224;PMS1003;56333;51.306;17.056;2023-04-27T00:46:41;10.60;5.50;
69224;PMS1003;56333;51.306;17.056;2023-04-27T00:48:13;9.30;5.50;
69224;PMS1003;56333;51.306;17.056;2023-04-27T00:49:42;11.20;5.80;
69224;PMS1003;56333;51.306;17.056;2023-04-27T00:51:11;10.50;5.80;
69224;PMS1003;56333;51.306;17.056;2023-04-27T00:52:40;9.60;5.80;
69224;PMS1003;56333;51.306;17.056;2023-04-27T00:54:11;8.60;5.90;
69224;PMS1003;56333;51.306;17.056;2023-04-27T00:55:41;12.00;5.80;
69224;PMS1003;56333;51.306;17.056;2023-04-27T00:57:09;9.10;5.40;
69224;PMS1003;56333;51.306;17.056;2023-04-27T00:58:38;9.60;5.80;
69224;PMS1003;56333;51.306;17.056;2023-04-27T01:00:09;9.90;5.70;
69224;PMS1003;56333;51.306;17.056;2023-04-27T01:01:39;10.40;5.40;
69224;PMS1003;56333;51.306;17.056;2023-04-27T01:03:10;11.10;5.40;
69224;PMS1003;56333;51.306;17.056;2023-04-27T01:04:39;10.30;5.60;
69224;PMS1003;56333;51.306;17.056;2023-04-27T01:06:09;10.60;5.70;
69224;PMS1003;56333;51.306;17.056;2023-04-27T01:07:40;8.50;5.40;
69224;PMS1003;56333;51.306;17.056;2023-04-27T01:10:36;8.70;5.40;
69224;PMS1003;56333;51.306;17.056;2023-04-27T01:12:05;9.50;5.90;
69224;PMS1003;56333;51.306;17.056;2023-04-27T01:13:34;9.80;5.80;
69224;PMS1003;56333;51.306;17.056;2023-04-27T01:15:04;10.20;6.10;
69224;PMS1003;56333;51.306;17.056;2023-04-27T01:16:34;12.00;6.00;
69224;PMS1003;56333;51.306;17.056;2023-04-27T01:18:04;10.70;5.70;
69224;PMS1003;56333;51.306;17.056;2023-04-27T01:19:33;11.30;5.30;
69224;PMS1003;56333;51.306;17.056;2023-04-27T01:21:02;12.10;6.10;
69224;PMS1003;56333;51.306;17.056;2023-04-27T01:22:32;10.60;6.00;
69224;PMS1003;56333;51.306;17.056;2023-04-27T01:24:00;11.20;6.20;
69224;PMS1003;56333;51.306;17.056;2023-04-27T01:25:29;11.20;6.30;
69224;PMS1003;56333;51.306;17.056;2023-04-27T01:27:02;11.50;6.30;
69224;PMS1003;56333;51.306;17.056;2023-04-27T01:28:31;12.00;6.40;
69224;PMS1003;56333;51.306;17.056;2023-04-27T01:30:00;10.10;6.20;
69224;PMS1003;56333;51.306;17.056;2023-04-27T01:31:29;10.80;6.30;
69224;PMS1003;56333;51.306;17.056;2023-04-27T01:32:58;11.80;6.80;
69224;PMS1003;56333;51.306;17.056;2023-04-27T01:34:27;12.80;6.40;
69224;PMS1003;56333;51.306;17.056;2023-04-27T01:35:57;10.40;6.60;
69224;PMS1003;56333;51.306;17.056;2023-04-27T01:37:27;9.70;6.40;
69224;PMS1003;56333;51.306;17.056;2023-04-27T01:38:56;11.20;6.70;
69224;PMS1003;56333;51.306;17.056;2023-04-27T01:40:24;14.30;8.20;
69224;PMS1003;56333;51.306;17.056;2023-04-27T01:41:54;12.70;7.30;
69224;PMS1003;56333;51.306;17.056;2023-04-27T01:43:24;13.20;7.60;
69224;PMS1003;56333;51.306;17.056;2023-04-27T01:44:53;14.00;7.10;
69224;PMS1003;56333;51.306;17.056;2023-04-27T01:46:22;11.60;7.60;
69224;PMS1003;56333;51.306;17.056;2023-04-27T01:47:52;12.30;7.40;
69224;PMS1003;56333;51.306;17.056;2023-04-27T01:49:22;13.70;7.80;
69224;PMS1003;56333;51.306;17.056;2023-04-27T01:50:51;11.80;7.60;
69224;PMS1003;56333;51.306;17.056;2023-04-27T01:52:20;11.70;7.00;
69224;PMS1003;56333;51.306;17.056;2023-04-27T01:53:49;14.30;7.50;
69224;PMS1003;56333;51.306;17.056;2023-04-27T01:55:18;12.30;7.20;
69224;PMS1003;56333;51.306;17.056;2023-04-27T01:56:47;14.80;7.60;
69224;PMS1003;56333;51.306;17.056;2023-04-27T01:58:17;13.60;7.00;
69224;PMS1003;56333;51.306;17.056;2023-04-27T01:59:47;13.70;7.80;
69224;PMS1003;56333;51.306;17.056;2023-04-27T02:01:16;12.50;7.30;
69224;PMS1003;56333;51.306;17.056;2023-04-27T02:02:45;13.20;7.60;
69224;PMS1003;56333;51.306;17.056;2023-04-27T02:04:15;11.60;7.60;
69224;PMS1003;56333;51.306;17.056;2023-04-27T02:05:44;11.80;7.40;
69224;PMS1003;56333;51.306;17.056;2023-04-27T02:07:13;13.00;7.70;
69224;PMS1003;56333;51.306;17.056;2023-04-27T02:08:43;12.20;7.50;
69224;PMS1003;56333;51.306;17.056;2023-04-27T02:10:12;12.40;7.80;
69224;PMS1003;56333;51.306;17.056;2023-04-27T02:11:40;14.30;8.30;
69224;PMS1003;56333;51.306;17.056;2023-04-27T02:13:09;12.50;8.20;
69224;PMS1003;56333;51.306;17.056;2023-04-27T02:14:38;11.40;7.30;
69224;PMS1003;56333;51.306;17.056;2023-04-27T02:16:08;14.60;7.80;
69224;PMS1003;56333;51.306;17.056;2023-04-27T02:19:06;13.60;7.70;
69224;PMS1003;56333;51.306;17.056;2023-04-27T02:20:34;11.90;7.50;
69224;PMS1003;56333;51.306;17.056;2023-04-27T02:22:03;12.90;6.90;
69224;PMS1003;56333;51.306;17.056;2023-04-27T02:23:32;13.90;7.20;
69224;PMS1003;56333;51.306;17.056;2023-04-27T02:25:01;12.70;7.30;
69224;PMS1003;56333;51.306;17.056;2023-04-27T02:26:31;16.50;7.90;
69224;PMS1003;56333;51.306;17.056;2023-04-27T02:28:00;15.00;7.60;
69224;PMS1003;56333;51.306;17.056;2023-04-27T02:29:32;13.60;7.80;
69224;PMS1003;56333;51.306;17.056;2023-04-27T02:31:03;12.30;7.80;
69224;PMS1003;56333;51.306;17.056;2023-04-27T02:32:33;12.30;7.70;
69224;PMS1003;56333;51.306;17.056;2023-04-27T02:34:04;14.70;8.10;
69224;PMS1003;56333;51.306;17.056;2023-04-27T02:35:33;12.00;7.90;
69224;PMS1003;56333;51.306;17.056;2023-04-27T02:37:02;10.10;7.00;
69224;PMS1003;56333;51.306;17.056;2023-04-27T02:38:32;13.70;8.10;
69224;PMS1003;56333;51.306;17.056;2023-04-27T02:40:02;14.10;8.10;
69224;PMS1003;56333;51.306;17.056;2023-04-27T02:41:34;16.20;8.40;
69224;PMS1003;56333;51.306;17.056;2023-04-27T02:43:03;14.20;8.10;
69224;PMS1003;56333;51.306;17.056;2023-04-27T02:44:34;13.70;7.80;
69224;PMS1003;56333;51.306;17.056;2023-04-27T02:46:05;12.70;8.20;
69224;PMS1003;56333;51.306;17.056;2023-04-27T02:47:34;13.90;8.30;
69224;PMS1003;56333;51.306;17.056;2023-04-27T02:49:03;15.00;8.00;
69224;PMS1003;56333;51.306;17.056;2023-04-27T02:50:32;12.20;7.40;
69224;PMS1003;56333;51.306;17.056;2023-04-27T02:52:07;13.80;7.40;
69224;PMS1003;56333;51.306;17.056;2023-04-27T02:53:35;12.70;7.40;
69224;PMS1003;56333;51.306;17.056;2023-04-27T02:55:05;14.70;8.10;
69224;PMS1003;56333;51.306;17.056;2023-04-27T02:56:35;11.30;7.50;
69224;PMS1003;56333;51.306;17.056;2023-04-27T02:58:04;13.60;7.50;
69224;PMS1003;56333;51.306;17.056;2023-04-27T02:59:33;12.80;7.80;
69224;PMS1003;56333;51.306;17.056;2023-04-27T03:01:02;12.00;7.80;
69224;PMS1003;56333;51.306;17.056;2023-04-27T03:02:31;13.10;7.80;
69224;PMS1003;56333;51.306;17.056;2023-04-27T03:03:59;12.20;8.00;
69224;PMS1003;56333;51.306;17.056;2023-04-27T03:05:29;13.80;8.10;
69224;PMS1003;56333;51.306;17.056;2023-04-27T03:06:58;15.10;8.10;
69224;PMS1003;56333;51.306;17.056;2023-04-27T03:08:27;12.80;8.10;
69224;PMS1003;56333;51.306;17.056;2023-04-27T03:09:57;12.20;8.40;
69224;PMS1003;56333;51.306;17.056;2023-04-27T03:11:29;15.90;8.90;
69224;PMS1003;56333;51.306;17.056;2023-04-27T03:12:58;14.10;8.70;
69224;PMS1003;56333;51.306;17.056;2023-04-27T03:14:27;15.60;8.70;
69224;PMS1003;56333;51.306;17.056;2023-04-27T03:15:57;15.60;8.00;
69224;PMS1003;56333;51.306;17.056;2023-04-27T03:17:26;13.20;8.20;
69224;PMS1003;56333;51.306;17.056;2023-04-27T03:18:55;12.30;7.30;
69224;PMS1003;56333;51.306;17.056;2023-04-27T03:20:25;15.90;8.60;
69224;PMS1003;56333;51.306;17.056;2023-04-27T03:21:54;13.10;7.30;
69224;PMS1003;56333;51.306;17.056;2023-04-27T03:23:22;13.40;7.60;
69224;PMS1003;56333;51.306;17.056;2023-04-27T03:24:51;13.50;7.90;
69224;PMS1003;56333;51.306;17.056;2023-04-27T03:26:20;13.60;8.90;
69224;PMS1003;56333;51.306;17.056;2023-04-27T03:27:50;12.90;8.60;
69224;PMS1003;56333;51.306;17.056;2023-04-27T03:29:18;13.10;8.70;
69224;PMS1003;56333;51.306;17.056;2023-04-27T03:30:47;15.20;8.60;
69224;PMS1003;56333;51.306;17.056;2023-04-27T03:32:16;13.70;8.40;
69224;PMS1003;56333;51.306;17.056;2023-04-27T03:33:45;14.00;8.80;
69224;PMS1003;56333;51.306;17.056;2023-04-27T03:35:14;16.10;9.20;
69224;PMS1003;56333;51.306;17.056;2023-04-27T03:36:44;14.00;8.50;
69224;PMS1003;56333;51.306;17.056;2023-04-27T03:38:12;14.20;8.60;
69224;PMS1003;56333;51.306;17.056;2023-04-27T03:39:42;13.30;8.90;
69224;PMS1003;56333;51.306;17.056;2023-04-27T03:41:12;16.30;8.80;
69224;PMS1003;56333;51.306;17.056;2023-04-27T03:42:40;14.00;8.90;
69224;PMS1003;56333;51.306;17.056;2023-04-27T03:44:10;14.50;8.30;
69224;PMS1003;56333;51.306;17.056;2023-04-27T03:45:39;15.20;8.50;
69224;PMS1003;56333;51.306;17.056;2023-04-27T03:47:08;15.60;8.40;
69224;PMS1003;56333;51.306;17.056;2023-04-27T03:48:37;14.80;8.30;
69224;PMS1003;56333;51.306;17.056;2023-04-27T03:50:10;15.50;8.40;
69224;PMS1003;56333;51.306;17.056;2023-04-27T03:51:39;14.70;8.70;
69224;PMS1003;56333;51.306;17.056;2023-04-27T03:53:08;14.80;8.90;
69224;PMS1003;56333;51.306;17.056;2023-04-27T03:54:38;14.30;8.60;
69224;PMS1003;56333;51.306;17.056;2023-04-27T03:56:07;13.80;8.70;
69224;PMS1003;56333;51.306;17.056;2023-04-27T03:57:36;13.70;8.80;
69224;PMS1003;56333;51.306;17.056;2023-04-27T03:59:06;15.70;8.70;
69224;PMS1003;56333;51.306;17.056;2023-04-27T04:00:36;12.80;7.70;
69224;PMS1003;56333;51.306;17.056;2023-04-27T04:02:05;15.80;8.30;
69224;PMS1003;56333;51.306;17.056;2023-04-27T04:03:35;12.30;8.60;
69224;PMS1003;56333;51.306;17.056;2023-04-27T04:05:05;13.00;7.80;
69224;PMS1003;56333;51.306;17.056;2023-04-27T04:06:35;14.90;8.20;
69224;PMS1003;56333;51.306;17.056;2023-04-27T04:08:03;14.40;8.00;
69224;PMS1003;56333;51.306;17.056;2023-04-27T04:09:33;13.70;7.70;
69224;PMS1003;56333;51.306;17.056;2023-04-27T04:11:02;12.60;7.30;
69224;PMS1003;56333;51.306;17.056;2023-04-27T04:12:32;13.90;7.30;
69224;PMS1003;56333;51.306;17.056;2023-04-27T04:14:00;14.50;7.30;
69224;PMS1003;56333;51.306;17.056;2023-04-27T04:15:29;12.30;7.00;
69224;PMS1003;56333;51.306;17.056;2023-04-27T04:16:58;12.90;7.00;
69224;PMS1003;56333;51.306;17.056;2023-04-27T04:18:27;12.90;7.50;
69224;PMS1003;56333;51.306;17.056;2023-04-27T04:19:57;11.80;7.10;
69224;PMS1003;56333;51.306;17.056;2023-04-27T04:21:27;13.00;7.10;
69224;PMS1003;56333;51.306;17.056;2023-04-27T04:22:58;14.80;7.20;
69224;PMS1003;56333;51.306;17.056;2023-04-27T04:24:27;13.50;7.10;
69224;PMS1003;56333;51.306;17.056;2023-04-27T04:25:56;11.00;7.00;
69224;PMS1003;56333;51.306;17.056;2023-04-27T04:27:30;11.20;6.70;
69224;PMS1003;56333;51.306;17.056;2023-04-27T04:28:59;11.80;6.70;
69224;PMS1003;56333;51.306;17.056;2023-04-27T04:30:28;11.50;6.70;
69224;PMS1003;56333;51.306;17.056;2023-04-27T04:31:57;12.40;7.10;
69224;PMS1003;56333;51.306;17.056;2023-04-27T04:33:26;13.70;6.90;
69224;PMS1003;56333;51.306;17.056;2023-04-27T04:34:56;12.30;6.40;
69224;PMS1003;56333;51.306;17.056;2023-04-27T04:36:27;12.40;6.70;
69224;PMS1003;56333;51.306;17.056;2023-04-27T04:37:56;11.60;6.80;
69224;PMS1003;56333;51.306;17.056;2023-04-27T04:39:24;12.90;6.60;
69224;PMS1003;56333;51.306;17.056;2023-04-27T04:40:58;13.50;6.60;
69224;PMS1003;56333;51.306;17.056;2023-04-27T04:42:30;11.60;6.50;
69224;PMS1003;56333;51.306;17.056;2023-04-27T04:43:59;10.80;6.30;
69224;PMS1003;56333;51.306;17.056;2023-04-27T04:45:28;10.50;6.60;
69224;PMS1003;56333;51.306;17.056;2023-04-27T04:46:57;11.30;7.50;
69224;PMS1003;56333;51.306;17.056;2023-04-27T04:48:26;10.50;6.90;
69224;PMS1003;56333;51.306;17.056;2023-04-27T04:49:56;12.90;7.20;
69224;PMS1003;56333;51.306;17.056;2023-04-27T04:51:26;11.80;7.00;
69224;PMS1003;56333;51.306;17.056;2023-04-27T04:52:54;12.50;7.00;
69224;PMS1003;56333;51.306;17.056;2023-04-27T04:54:23;13.80;7.50;
69224;PMS1003;56333;51.306;17.056;2023-04-27T04:55:54;12.10;7.30;
69224;PMS1003;56333;51.306;17.056;2023-04-27T04:57:23;11.70;6.90;
69224;PMS1003;56333;51.306;17.056;2023-04-27T04:58:52;12.90;7.00;
69224;PMS1003;56333;51.306;17.056;2023-04-27T05:00:21;14.00;7.90;
69224;PMS1003;56333;51.306;17.056;2023-04-27T05:01:50;12.40;8.10;
69224;PMS1003;56333;51.306;17.056;2023-04-27T05:03:20;12.60;7.90;
69224;PMS1003;56333;51.306;17.056;2023-04-27T05:04:49;14.70;8.40;
69224;PMS1003;56333;51.306;17.056;2023-04-27T05:06:19;14.10;8.20;
69224;PMS1003;56333;51.306;17.056;2023-04-27T05:07:48;14.20;7.30;
69224;PMS1003;56333;51.306;17.056;2023-04-27T05:09:18;13.40;7.00;
69224;PMS1003;56333;51.306;17.056;2023-04-27T05:10:52;14.20;7.30;
69224;PMS1003;56333;51.306;17.056;2023-04-27T05:12:21;15.60;7.60;
69224;PMS1003;56333;51.306;17.056;2023-04-27T05:13:50;13.00;7.30;
69224;PMS1003;56333;51.306;17.056;2023-04-27T05:15:19;14.00;6.90;
69224;PMS1003;56333;51.306;17.056;2023-04-27T05:16:48;14.30;8.10;
69224;PMS1003;56333;51.306;17.056;2023-04-27T05:18:17;11.90;8.10;
69224;PMS1003;56333;51.306;17.056;2023-04-27T05:19:46;13.80;8.70;
69224;PMS1003;56333;51.306;17.056;2023-04-27T05:21:18;12.90;7.80;
69224;PMS1003;56333;51.306;17.056;2023-04-27T05:22:47;13.80;8.10;
69224;PMS1003;56333;51.306;17.056;2023-04-27T05:24:16;13.90;8.30;
69224;PMS1003;56333;51.306;17.056;2023-04-27T05:25:45;13.40;8.40;
69224;PMS1003;56333;51.306;17.056;2023-04-27T05:27:15;15.30;8.80;
69224;PMS1003;56333;51.306;17.056;2023-04-27T05:28:44;15.50;8.50;
69224;PMS1003;56333;51.306;17.056;2023-04-27T05:30:15;14.60;8.70;
69224;PMS1003;56333;51.306;17.056;2023-04-27T05:31:44;13.40;8.80;
69224;PMS1003;56333;51.306;17.056;2023-04-27T05:33:12;19.20;9.90;
69224;PMS1003;56333;51.306;17.056;2023-04-27T05:34:42;16.30;9.70;
69224;PMS1003;56333;51.306;17.056;2023-04-27T05:36:11;17.10;9.30;
69224;PMS1003;56333;51.306;17.056;2023-04-27T05:37:41;16.30;9.80;
69224;PMS1003;56333;51.306;17.056;2023-04-27T05:39:11;19.50;11.70;
69224;PMS1003;56333;51.306;17.056;2023-04-27T05:40:39;16.40;10.00;
69224;PMS1003;56333;51.306;17.056;2023-04-27T05:42:09;16.70;9.80;
69224;PMS1003;56333;51.306;17.056;2023-04-27T05:43:37;15.50;8.60;
69224;PMS1003;56333;51.306;17.056;2023-04-27T05:45:08;13.30;8.50;
69224;PMS1003;56333;51.306;17.056;2023-04-27T05:46:37;13.80;8.80;
69224;PMS1003;56333;51.306;17.056;2023-04-27T05:48:06;12.20;8.20;
69224;PMS1003;56333;51.306;17.056;2023-04-27T05:49:36;13.60;8.40;
69224;PMS1003;56333;51.306;17.056;2023-04-27T05:51:05;15.80;9.90;
69224;PMS1003;56333;51.306;17.056;2023-04-27T05:52:34;15.70;9.30;
69224;PMS1003;56333;51.306;17.056;2023-04-27T05:54:04;15.60;7.90;
69224;PMS1003;56333;51.306;17.056;2023-04-27T05:55:44;11.20;6.40;
69224;PMS1003;56333;51.306;17.056;2023-04-27T05:57:17;11.00;5.70;
69224;PMS1003;56333;51.306;17.056;2023-04-27T05:58:51;13.10;6.90;
69224;PMS1003;56333;51.306;17.056;2023-04-27T06:00:21;9.90;5.90;
69224;PMS1003;56333;51.306;17.056;2023-04-27T06:01:52;10.40;5.80;
69224;PMS1003;56333;51.306;17.056;2023-04-27T06:03:22;11.40;5.90;
69224;PMS1003;56333;51.306;17.056;2023-04-27T06:04:51;9.40;5.80;
69224;PMS1003;56333;51.306;17.056;2023-04-27T06:06:20;9.80;5.40;
69224;PMS1003;56333;51.306;17.056;2023-04-27T06:07:49;12.10;6.50;
69224;PMS1003;56333;51.306;17.056;2023-04-27T06:09:18;13.30;6.60;
69224;PMS1003;56333;51.306;17.056;2023-04-27T06:10:46;11.00;5.60;
69224;PMS1003;56333;51.306;17.056;2023-04-27T06:12:15;10.10;4.90;
69224;PMS1003;56333;51.306;17.056;2023-04-27T06:13:43;10.00;5.00;
69224;PMS1003;56333;51.306;17.056;2023-04-27T06:15:13;10.50;5.60;
69224;PMS1003;56333;51.306;17.056;2023-04-27T06:16:42;12.30;5.50;
69224;PMS1003;56333;51.306;17.056;2023-04-27T06:18:11;10.50;5.20;
69224;PMS1003;56333;51.306;17.056;2023-04-27T06:19:40;8.20;5.10;
69224;PMS1003;56333;51.306;17.056;2023-04-27T06:21:09;14.80;5.30;
69224;PMS1003;56333;51.306;17.056;2023-04-27T06:22:38;10.90;5.50;
69224;PMS1003;56333;51.306;17.056;2023-04-27T06:24:08;8.70;5.10;
69224;PMS1003;56333;51.306;17.056;2023-04-27T06:25:37;9.60;4.90;
69224;PMS1003;56333;51.306;17.056;2023-04-27T06:27:06;7.80;4.70;
69224;PMS1003;56333;51.306;17.056;2023-04-27T06:28:36;10.20;4.70;
69224;PMS1003;56333;51.306;17.056;2023-04-27T06:30:07;7.60;4.60;
69224;PMS1003;56333;51.306;17.056;2023-04-27T06:31:37;6.50;4.10;
69224;PMS1003;56333;51.306;17.056;2023-04-27T06:33:06;11.40;4.10;
69224;PMS1003;56333;51.306;17.056;2023-04-27T06:34:35;9.80;4.90;
69224;PMS1003;56333;51.306;17.056;2023-04-27T06:36:04;7.50;3.80;
69224;PMS1003;56333;51.306;17.056;2023-04-27T06:37:33;10.70;4.50;
69224;PMS1003;56333;51.306;17.056;2023-04-27T06:39:02;9.90;5.00;
69224;PMS1003;56333;51.306;17.056;2023-04-27T06:40:31;9.90;4.50;
69224;PMS1003;56333;51.306;17.056;2023-04-27T06:42:02;7.70;4.60;
69224;PMS1003;56333;51.306;17.056;2023-04-27T06:43:35;9.50;4.50;
69224;PMS1003;56333;51.306;17.056;2023-04-27T06:45:10;7.80;4.60;
69224;PMS1003;56333;51.306;17.056;2023-04-27T06:46:39;7.60;4.40;
69224;PMS1003;56333;51.306;17.056;2023-04-27T06:48:08;8.00;4.70;
69224;PMS1003;56333;51.306;17.056;2023-04-27T06:49:38;8.70;4.30;
69224;PMS1003;56333;51.306;17.056;2023-04-27T06:51:10;9.70;5.00;
69224;PMS1003;56333;51.306;17.056;2023-04-27T06:52:38;7.80;4.10;
69224;PMS1003;56333;51.306;17.056;2023-04-27T06:54:07;7.30;3.90;
69224;PMS1003;56333;51.306;17.056;2023-04-27T06:55:45;7.70;4.40;
69224;PMS1003;56333;51.306;17.056;2023-04-27T06:57:26;7.50;4.30;
69224;PMS1003;56333;51.306;17.056;2023-04-27T06:58:55;7.60;3.80;
69224;PMS1003;56333;51.306;17.056;2023-04-27T07:00:30;9.40;4.40;
69224;PMS1003;56333;51.306;17.056;2023-04-27T07:01:59;6.80;4.20;
69224;PMS1003;56333;51.306;17.056;2023-04-27T07:03:37;12.40;4.70;
69224;PMS1003;56333;51.306;17.056;2023-04-27T07:05:11;7.80;3.80;
69224;PMS1003;56333;51.306;17.056;2023-04-27T07:06:40;6.40;3.80;
69224;PMS1003;56333;51.306;17.056;2023-04-27T07:08:08;7.90;4.00;
69224;PMS1003;56333;51.306;17.056;2023-04-27T07:09:38;7.30;3.90;
69224;PMS1003;56333;51.306;17.056;2023-04-27T07:11:07;7.50;3.60;
69224;PMS1003;56333;51.306;17.056;2023-04-27T07:12:36;7.00;3.90;
69224;PMS1003;56333;51.306;17.056;2023-04-27T07:14:05;5.50;2.90;
69224;PMS1003;56333;51.306;17.056;2023-04-27T07:15:34;7.90;3.90;
69224;PMS1003;56333;51.306;17.056;2023-04-27T07:17:03;8.10;3.10;
69224;PMS1003;56333;51.306;17.056;2023-04-27T07:18:32;6.00;3.40;
69224;PMS1003;56333;51.306;17.056;2023-04-27T07:20:01;7.10;3.70;
69224;PMS1003;56333;51.306;17.056;2023-04-27T07:22:59;7.60;3.60;
69224;PMS1003;56333;51.306;17.056;2023-04-27T07:24:29;5.90;3.30;
69224;PMS1003;56333;51.306;17.056;2023-04-27T07:25:59;8.20;3.30;
69224;PMS1003;56333;51.306;17.056;2023-04-27T07:27:28;7.20;3.80;
69224;PMS1003;56333;51.306;17.056;2023-04-27T07:28:58;9.50;3.80;
69224;PMS1003;56333;51.306;17.056;2023-04-27T07:30:27;7.40;3.60;
69224;PMS1003;56333;51.306;17.056;2023-04-27T07:31:58;6.40;3.00;
69224;PMS1003;56333;51.306;17.056;2023-04-27T07:33:28;5.90;3.30;
69224;PMS1003;56333;51.306;17.056;2023-04-27T07:34:58;7.10;3.90;
69224;PMS1003;56333;51.306;17.056;2023-04-27T07:36:28;6.80;4.50;
69224;PMS1003;56333;51.306;17.056;2023-04-27T07:37:58;6.20;3.20;
69224;PMS1003;56333;51.306;17.056;2023-04-27T07:39:28;6.50;3.10;
69224;PMS1003;56333;51.306;17.056;2023-04-27T07:41:00;8.40;3.50;
69224;PMS1003;56333;51.306;17.056;2023-04-27T07:42:30;6.90;3.30;
69224;PMS1003;56333;51.306;17.056;2023-04-27T07:43:59;5.70;2.80;
69224;PMS1003;56333;51.306;17.056;2023-04-27T07:45:28;7.00;3.40;
69224;PMS1003;56333;51.306;17.056;2023-04-27T07:46:58;7.00;3.90;
69224;PMS1003;56333;51.306;17.056;2023-04-27T07:48:29;7.60;3.70;
69224;PMS1003;56333;51.306;17.056;2023-04-27T07:49:59;6.50;3.40;
69224;PMS1003;56333;51.306;17.056;2023-04-27T07:51:32;6.60;3.30;
69224;PMS1003;56333;51.306;17.056;2023-04-27T07:53:01;5.50;2.60;
69224;PMS1003;56333;51.306;17.056;2023-04-27T07:54:29;6.00;3.00;
69224;PMS1003;56333;51.306;17.056;2023-04-27T07:55:58;7.30;3.00;
69224;PMS1003;56333;51.306;17.056;2023-04-27T07:57:28;5.20;2.70;
69224;PMS1003;56333;51.306;17.056;2023-04-27T07:58:58;7.30;2.70;
69224;PMS1003;56333;51.306;17.056;2023-04-27T08:00:28;6.30;2.40;
69224;PMS1003;56333;51.306;17.056;2023-04-27T08:01:58;5.00;2.80;
69224;PMS1003;56333;51.306;17.056;2023-04-27T08:03:27;6.40;2.80;
69224;PMS1003;56333;51.306;17.056;2023-04-27T08:04:55;6.40;3.00;
69224;PMS1003;56333;51.306;17.056;2023-04-27T08:06:24;7.10;3.30;
69224;PMS1003;56333;51.306;17.056;2023-04-27T08:07:54;6.70;2.80;
69224;PMS1003;56333;51.306;17.056;2023-04-27T08:09:23;5.60;3.00;
69224;PMS1003;56333;51.306;17.056;2023-04-27T08:10:53;8.00;3.30;
69224;PMS1003;56333;51.306;17.056;2023-04-27T08:12:21;8.30;3.30;
69224;PMS1003;56333;51.306;17.056;2023-04-27T08:13:50;5.80;3.20;
69224;PMS1003;56333;51.306;17.056;2023-04-27T08:15:19;6.10;3.30;
69224;PMS1003;56333;51.306;17.056;2023-04-27T08:16:47;6.60;3.10;
69224;PMS1003;56333;51.306;17.056;2023-04-27T08:18:17;6.10;2.90;
69224;PMS1003;56333;51.306;17.056;2023-04-27T08:19:46;10.30;2.90;
69224;PMS1003;56333;51.306;17.056;2023-04-27T08:21:15;6.30;2.80;
69224;PMS1003;56333;51.306;17.056;2023-04-27T08:22:44;7.00;2.90;
69224;PMS1003;56333;51.306;17.056;2023-04-27T08:24:13;6.00;2.80;
69224;PMS1003;56333;51.306;17.056;2023-04-27T08:25:41;5.30;3.00;
69224;PMS1003;56333;51.306;17.056;2023-04-27T08:27:10;7.40;3.20;
69224;PMS1003;56333;51.306;17.056;2023-04-27T08:28:39;6.70;3.20;
69224;PMS1003;56333;51.306;17.056;2023-04-27T08:30:10;6.10;3.10;
69224;PMS1003;56333;51.306;17.056;2023-04-27T08:31:39;6.10;3.00;
69224;PMS1003;56333;51.306;17.056;2023-04-27T08:33:09;7.50;3.30;
69224;PMS1003;56333;51.306;17.056;2023-04-27T08:34:37;6.80;3.40;
69224;PMS1003;56333;51.306;17.056;2023-04-27T08:36:08;6.10;3.10;
69224;PMS1003;56333;51.306;17.056;2023-04-27T08:37:36;8.10;3.50;
69224;PMS1003;56333;51.306;17.056;2023-04-27T08:39:05;7.30;3.70;
69224;PMS1003;56333;51.306;17.056;2023-04-27T08:40:35;5.70;3.20;
69224;PMS1003;56333;51.306;17.056;2023-04-27T08:42:10;7.50;3.50;
69224;PMS1003;56333;51.306;17.056;2023-04-27T08:43:39;7.50;3.40;
69224;PMS1003;56333;51.306;17.056;2023-04-27T08:45:11;7.60;3.50;
69224;PMS1003;56333;51.306;17.056;2023-04-27T08:46:40;5.80;3.30;
69224;PMS1003;56333;51.306;17.056;2023-04-27T08:48:09;7.10;3.20;
69224;PMS1003;56333;51.306;17.056;2023-04-27T08:49:38;5.90;3.70;
69224;PMS1003;56333;51.306;17.056;2023-04-27T08:51:11;6.60;3.20;
69224;PMS1003;56333;51.306;17.056;2023-04-27T08:52:44;6.90;3.20;
69224;PMS1003;56333;51.306;17.056;2023-04-27T08:55:40;6.90;3.40;
69224;PMS1003;56333;51.306;17.056;2023-04-27T08:57:13;4.90;3.10;
69224;PMS1003;56333;51.306;17.056;2023-04-27T08:58:42;6.20;3.60;
69224;PMS1003;56333;51.306;17.056;2023-04-27T09:00:14;5.60;3.30;
69224;PMS1003;56333;51.306;17.056;2023-04-27T09:01:47;5.70;3.10;
69224;PMS1003;56333;51.306;17.056;2023-04-27T09:03:24;6.20;3.70;
69224;PMS1003;56333;51.306;17.056;2023-04-27T09:04:53;6.50;4.00;
69224;PMS1003;56333;51.306;17.056;2023-04-27T09:06:31;6.60;3.60;
69224;PMS1003;56333;51.306;17.056;2023-04-27T09:08:03;6.40;3.50;
69224;PMS1003;56333;51.306;17.056;2023-04-27T09:09:34;5.20;3.20;